Logo AVAMET
Benvolgut visitant, si us plau, ingressa Recuperar contrasenya

Picassent

Dades diàries. Acumulats / Últims 30 dies disponibles

Data Temperatura (°C) Humitat rel. (%) Pressió rel. (hPa) Vent (km/h) Precipitació
Mínima Mitjana Màxima Amplitud
tèrmica
Mínima Mitjana Màxima Mínima Mitjana Màxima Predom. Mitjana Ràfega
màxima
Total
(mm)
Índex-n
Mínima Mitjana Màxima Mínima Mitjana Màxima n
0 a 1
P0 max
mm 5'
Dades mensuals acumulades fins l'últim dia disponible
09/2019 15,5 20,5 23,2 23,6 21,6 27,0 32,2 16,7 24 72 95 1.008 1.019 1.028   6,9 49,2 97,9
Dades anuals acumulades fins l'últim dia disponible
2019 1,8 14,8 27,2 19,0 11,9 23,6 41,3 39,5 15 63 98 994 1.018 1.037   6,4 62,2 282,3
Últims 30 dies disponibles
17-09-2019 20,1     23,7     28,1 8,0 60 79 91 1.015 1.017 1.019 SSO 4,2 21,6 0,0
16-09-2019 22,5     24,4     27,5 5,0 59 78 91 1.018 1.019 1.021 S 5,2 18,3 0,0
15-09-2019 22,3     23,8     26,4 4,1 66 78 90 1.019 1.021 1.023 SSO 8,0 32,7 3,1
14-09-2019 17,7     21,7     25,1 7,4 57 80 91 1.022 1.024 1.027 SSO 6,6 34,6 11,2 0,52 1,80
13-09-2019 19,8     21,6     23,2 3,4 59 78 93 1.023 1.025 1.027 OSO 8,3 49,2 14,2 0,36 1,40
12-09-2019 18,9     21,9     25,2 6,3 60 76 95 1.023 1.025 1.028 S 9,1 39,6 47,6 0,88 12,40
11-09-2019 15,5     18,1     21,6 6,1 45 77 90 1.014 1.019 1.024 NO 10,6 32,7 13,2 0,51 1,20
10-09-2019 19,4     24,2     26,6 7,2 24 35 71 1.008 1.011 1.014 ONO 10,8 40,7 0,0
09-09-2019 20,1     25,4     31,9 11,8 38 63 80 1.010 1.015 1.018 SO 6,9 28,1 0,0
08-09-2019 19,6     23,2     27,2 7,6 52 72 85 1.016 1.018 1.020 SSO 6,0 24,4 0,0
07-09-2019 20,1     22,4     24,8 4,7 62 79 90 1.019 1.020 1.022 SO 6,0 20,9 0,5
06-09-2019 20,7     23,0     25,6 4,9 49 65 82 1.019 1.020 1.022 SSO 6,4 21,6 0,0
05-09-2019 22,8     25,0     27,9 5,1 47 69 87 1.017 1.018 1.020 SO 6,9 26,3 0,0
04-09-2019 23,1     26,2     29,8 6,7 57 75 89 1.016 1.019 1.021 SO 6,0 20,9 0,0
03-09-2019 23,2     25,2     28,5 5,3 64 78 86 1.020 1.021 1.022 SO 5,4 24,4
02-09-2019 20,1     24,1     27,6 7,5 61 78 93 1.015 1.019 1.021 SO 6,0 25,2 8,1 0,52 0,80
01-09-2019 22,3     27,2     32,2 9,9 40 59 80 1.012 1.014 1.016 SO 5,6 26,3 0,0
31-08-2019 22,2     27,4     31,9 9,7 40 56 71 1.014 1.016 1.019 S 5,8 21,6 0,0
30-08-2019 22,1     26,6     31,3 9,2 43 62 76 1.018 1.020 1.021 SO 5,3 21,6 0,0
29-08-2019 20,9     25,7     30,3 9,4 44 65 80 1.019 1.020 1.021 SO 5,5 24,4 0,0
28-08-2019 18,8     23,9     29,3 10,5 45 67 85 1.017 1.018 1.019 S 4,7 20,2 0,0
27-08-2019 18,2     22,6     28,6 10,4 51 76 89 1.015 1.016 1.018 SO 6,5 40,0 6,4 0,27 0,60
26-08-2019 22,0     25,2     28,1 6,1 64 76 85 1.015 1.017 1.019 S 6,1 23,7 0,0
25-08-2019 21,3     25,7     29,4 8,1 51 70 86 1.017 1.018 1.019 SSO 6,2 23,3 0,0
24-08-2019 20,2     25,0     29,3 9,1 43 64 82 1.018 1.019 1.020 SSO 5,2 22,6 0,0
23-08-2019 20,5     25,6     30,6 10,1 31 65 89 1.019 1.020 1.022 SSO 5,6 23,7 0,0
22-08-2019 19,6     24,2     28,8 9,2 39 69 87 1.020 1.021 1.022 SSO 5,5 24,4 0,0
21-08-2019 21,6     23,9     26,7 5,1 59 76 91 1.019 1.021 1.022 SO 5,8 19,1 2,3 0,26 0,30
20-08-2019 24,6     25,9     29,0 4,4 56 71 82 1.015 1.018 1.022 S 8,8 40,0 0,0
19-08-2019 24,9     27,1     29,9 5,0 64 79 89 1.013 1.015 1.017 SSO 6,3 25,5 0,0
Últims 13 mesos disponibles
08/2019 18,2 22,7 27,2 26,5 26,7 30,7 41,3 23,1 39 69 79 1.011 1.016 1.021 S 6,1 40,0 8,7
07/2019 21,4 23,0 24,9 26,9 27,3 30,9 37,4 16,0 43 65 76 1.006 1.015 1.022 SSO 6,2 50,3 9,4
06/2019 13,7 18,4 22,4 22,8 20,9 27,1 34,6 20,9 35 63 77 1.009 1.016 1.023 S 6,3 42,0 0,0
05/2019 9,8 14,7 20,7 19,0 18,9 23,2 32,4 22,6 47 64 82 1.006 1.016 1.025 SSO 6,5 47,4 14,6
04/2019 8,6 11,6 14,7 15,4 15,2 19,9 29,9 21,3 37 65 96 1.000 1.014 1.026 SO 7,2 47,7 132,7
03/2019 6,9 9,8 15,7 14,7 12,8 20,0 28,6 21,7 38 56 88 1.011 1.024 1.031 SO 5,9 49,2 19,0
02/2019 4,7 7,5 10,9 12,3 12,5 17,8 26,1 21,4 33 62 78 996 1.026 1.035 OSO 6,1 62,2 0,0
01/2019 1,8 7,0 12,7 11,3 11,9 16,8 20,2 18,4 39 56 76 1.003 1.020 1.031 SO 6,5 59,0 0,0
12/2018 4,7 9,6 14,5 13,3 14,2 18,1 22,8 18,1 50 67 90 1.009 1.026 1.031 O 5,7 46,1 12,2
11/2018 7,3 11,8 15,6 14,7 14,3 18,3 24,1 16,8 50 72 96 1.003 1.016 1.025 O 5,8 51,1 136,3
10/2018 7,6 15,2 19,6 19,0 13,7 22,7 28,3 20,7 43 69 90 1.002 1.016 1.027 5,6 51,0 177,6
09/2018 16,2 20,5 22,8 23,9 21,4 27,3 30,6 14,4 57 76 94 1.013 1.019 1.028 34,0 117,6
08/2018 20,7 23,8 26,9 26,7 25,3 29,5 35,8 15,1 53 69 86 1.013 1.017 1.021 44,0 9,0
Tots els anys disponibles
2018 2,4 14,9 26,9 18,3 5,9 21,9 36,1 33,7 36 66 96 994 1.017 1.037 O 1,0 74,0 751,9
Temperatura (°C)
Humitat relativa (%)
Velocitat del vent i ràfega màxima (km/h)
Direcció del vent (°)
Pressió (hPa)
Precipitació (mm)
Nota sobre les dades: s'avisa a l'usuari de la provisionalitat i no oficialitat d'aquestes dades
Logo AVAMET blanc
Web allotjada a Sollutia
Llicència de Creative CommonsLa web d'AVAMET i els seus continguts estan subjectes a una llicència de
Reconeixement - No Comercial - Compartir igual
Properes estacions: Altea - Club Nàutic d'Altea (Soci),    - - - - -      Últimes estacions: Llíria - Bodegas del Campo (Soci), La Pobla Tornesa (Soci), Quartell (Soci), Alzira - Est (Soci/Inforatge), San Miguel de las Salinas (MeteOrihuela), Segorbe (Inforatge), Alcalà de Xivert - Alcossebre (Inforatge), Moixent - la Foia (Soci), Callosa d'en Sarrià - Centre (Soci) - - -